createdAt,value
2022-08-31T00:00:09.599Z,75.09
2022-08-31T00:02:55.083Z,75.34
2022-08-31T00:05:23.247Z,75.31
2022-08-31T00:07:51.778Z,75.73
2022-08-31T00:10:32.354Z,76.74
2022-08-31T00:13:07.102Z,77.81
2022-08-31T00:15:35.865Z,77.19
2022-08-31T00:18:04.150Z,77.94
2022-08-31T00:20:33.433Z,78.66
2022-08-31T00:23:02.578Z,78.48
2022-08-31T00:25:30.440Z,78.79
2022-08-31T00:27:58.206Z,79.28
2022-08-31T00:30:27.581Z,79.24
2022-08-31T00:32:58.251Z,80.66
2022-08-31T00:35:27.393Z,79.47
2022-08-31T00:37:55.166Z,80.60
2022-08-31T00:40:23.287Z,80.48
2022-08-31T00:42:51.361Z,81.07
2022-08-31T00:45:19.334Z,81.83
2022-08-31T00:47:48.608Z,81.74
2022-08-31T00:50:19.414Z,81.83
2022-08-31T00:52:51.128Z,81.74
2022-08-31T00:55:22.745Z,82.88
2022-08-31T00:57:54.141Z,82.97
2022-08-31T01:00:25.509Z,83.63
2022-08-31T01:02:56.025Z,83.46
2022-08-31T01:05:23.880Z,84.11
2022-08-31T01:07:52.682Z,83.43
2022-08-31T01:10:23.131Z,83.92
2022-08-31T01:12:54.107Z,83.69
2022-08-31T01:15:22.914Z,84.74
2022-08-31T01:17:55.503Z,85.11
2022-08-31T01:20:30.208Z,85.03
2022-08-31T01:23:12.101Z,84.59
2022-08-31T01:25:42.855Z,85.32
2022-08-31T01:28:12.202Z,85.34
2022-08-31T01:30:42.672Z,85.55
2022-08-31T01:33:11.479Z,85.52
2022-08-31T01:35:41.430Z,86.05
2022-08-31T01:38:13.280Z,86.50
2022-08-31T01:40:47.988Z,86.83
2022-08-31T01:43:16.845Z,87.13
2022-08-31T01:45:44.978Z,87.58
2022-08-31T01:48:13.198Z,87.20
2022-08-31T01:50:41.493Z,87.04
2022-08-31T01:53:11.175Z,87.67
2022-08-31T01:55:39.009Z,86.56
2022-08-31T01:58:07.410Z,85.97
2022-08-31T02:00:36.087Z,87.05
2022-08-31T02:03:05.195Z,87.08
2022-08-31T02:05:33.006Z,86.47
2022-08-31T02:08:00.774Z,86.83
2022-08-31T02:10:30.000Z,86.58
2022-08-31T02:12:58.067Z,87.27
2022-08-31T02:15:25.964Z,86.75
2022-08-31T02:17:53.668Z,87.38
2022-08-31T02:20:21.505Z,87.77
2022-08-31T02:22:50.249Z,88.11
2022-08-31T02:25:18.085Z,87.88
2022-08-31T02:27:47.257Z,87.42
2022-08-31T02:30:19.118Z,87.33
2022-08-31T02:32:46.955Z,87.37
2022-08-31T02:35:15.065Z,87.82
2022-08-31T02:37:42.883Z,87.58
2022-08-31T02:40:12.196Z,88.16
2022-08-31T02:42:52.501Z,88.52
2022-08-31T02:45:23.433Z,87.75
2022-08-31T02:47:51.436Z,89.07
2022-08-31T02:50:19.614Z,87.74
2022-08-31T02:52:48.034Z,88.93
2022-08-31T02:55:15.866Z,89.04
2022-08-31T02:57:43.651Z,87.70
2022-08-31T03:00:13.096Z,87.96
2022-08-31T03:02:42.431Z,87.58
2022-08-31T03:05:11.877Z,89.36
2022-08-31T03:07:40.413Z,88.68
2022-08-31T03:10:10.541Z,90.67
2022-08-31T03:12:38.670Z,90.04
2022-08-31T03:15:08.639Z,89.31
2022-08-31T03:17:37.092Z,89.43
2022-08-31T03:20:07.627Z,88.97
2022-08-31T03:22:35.906Z,89.32
2022-08-31T03:25:05.308Z,89.12
2022-08-31T03:27:33.155Z,88.61
2022-08-31T03:30:01.546Z,88.71
2022-08-31T03:32:30.863Z,89.08
2022-08-31T03:35:00.675Z,88.76
2022-08-31T03:37:29.893Z,88.57
2022-08-31T03:39:57.705Z,88.35
2022-08-31T03:42:26.457Z,89.48
2022-08-31T03:44:55.488Z,89.52
2022-08-31T03:47:23.313Z,88.95
2022-08-31T03:49:51.346Z,89.03
2022-08-31T03:52:20.748Z,88.92
2022-08-31T03:54:49.868Z,88.98
2022-08-31T03:57:17.791Z,88.87
2022-08-31T03:59:45.561Z,89.25
2022-08-31T04:02:13.392Z,89.10
2022-08-31T04:04:41.319Z,89.09
2022-08-31T04:07:09.026Z,89.42
2022-08-31T04:09:36.914Z,89.73
2022-08-31T04:12:06.300Z,89.82
2022-08-31T04:14:34.211Z,90.69
2022-08-31T04:17:02.082Z,90.39
2022-08-31T04:19:31.540Z,90.16
2022-08-31T04:21:59.586Z,90.25
2022-08-31T04:24:27.395Z,90.41
2022-08-31T04:26:55.272Z,90.76
2022-08-31T04:29:24.707Z,90.95
2022-08-31T04:31:52.603Z,91.73
2022-08-31T04:34:20.662Z,91.98
2022-08-31T04:36:48.474Z,91.60
2022-08-31T04:39:17.027Z,91.40
2022-08-31T04:41:44.876Z,91.74
2022-08-31T04:44:16.462Z,92.75
2022-08-31T04:46:48.750Z,92.35
2022-08-31T04:49:16.558Z,92.38
2022-08-31T04:51:46.251Z,91.76
2022-08-31T04:54:14.936Z,92.17
2022-08-31T04:56:45.849Z,91.76
2022-08-31T04:59:16.229Z,91.98
2022-08-31T05:01:45.985Z,92.92
2022-08-31T05:04:16.979Z,92.63
2022-08-31T05:06:47.188Z,93.32
2022-08-31T05:09:18.247Z,92.75
2022-08-31T05:11:46.675Z,92.42
2022-08-31T05:14:14.558Z,92.63
2022-08-31T05:16:43.239Z,92.77
2022-08-31T05:19:11.487Z,91.88
2022-08-31T05:21:42.877Z,92.31
2022-08-31T05:24:13.279Z,92.43
2022-08-31T05:26:44.706Z,92.07
2022-08-31T05:29:14.402Z,92.50
2022-08-31T05:31:43.226Z,92.46
2022-08-31T05:34:12.558Z,91.53
2022-08-31T05:36:42.719Z,92.56
2022-08-31T05:39:11.882Z,92.22
2022-08-31T05:41:40.700Z,91.22
2022-08-31T05:44:10.015Z,91.65
2022-08-31T05:46:38.291Z,91.77
2022-08-31T05:49:08.350Z,91.02
2022-08-31T05:51:39.533Z,91.33
2022-08-31T05:54:10.712Z,92.04
2022-08-31T05:56:41.161Z,91.22
2022-08-31T05:59:11.009Z,90.85
2022-08-31T06:01:41.077Z,90.11
2022-08-31T06:04:09.778Z,89.71
2022-08-31T06:06:38.235Z,89.92
2022-08-31T06:09:08.649Z,89.80
2022-08-31T06:11:38.904Z,90.24
2022-08-31T06:14:06.774Z,89.42
2022-08-31T06:16:36.088Z,88.92
2022-08-31T06:19:07.098Z,90.21
2022-08-31T06:21:38.539Z,88.30
2022-08-31T06:24:10.933Z,87.54
2022-08-31T06:26:40.768Z,87.53
2022-08-31T06:29:09.461Z,86.75
2022-08-31T06:31:39.767Z,85.60
2022-08-31T06:34:08.318Z,85.01
2022-08-31T06:36:36.657Z,83.59
2022-08-31T06:39:04.605Z,83.35
2022-08-31T06:41:36.933Z,83.05
2022-08-31T06:44:07.853Z,82.81
2022-08-31T06:46:36.974Z,82.08
2022-08-31T06:49:05.769Z,80.38
2022-08-31T06:51:38.080Z,81.53
2022-08-31T06:54:27.992Z,82.59
2022-08-31T06:56:58.210Z,82.33
2022-08-31T06:59:28.787Z,83.32
2022-08-31T07:01:57.727Z,83.90
2022-08-31T07:04:26.285Z,84.09
2022-08-31T07:06:54.614Z,84.18
2022-08-31T07:09:23.058Z,84.03
2022-08-31T07:11:52.519Z,82.96
2022-08-31T07:14:24.103Z,83.35
2022-08-31T07:16:53.251Z,84.07
2022-08-31T07:19:22.033Z,84.29
2022-08-31T07:21:51.570Z,83.76
2022-08-31T07:24:24.341Z,83.59
2022-08-31T07:26:58.170Z,82.71
2022-08-31T07:29:30.470Z,81.91
2022-08-31T07:31:59.346Z,81.77
2022-08-31T07:34:29.271Z,81.80
2022-08-31T07:37:15.888Z,80.65
2022-08-31T07:40:06.376Z,81.55
2022-08-31T07:42:38.668Z,79.41
2022-08-31T07:45:12.762Z,79.94
2022-08-31T07:47:45.368Z,80.30
2022-08-31T07:50:15.012Z,80.05
2022-08-31T07:52:48.374Z,78.92
2022-08-31T07:55:18.055Z,80.17
2022-08-31T07:57:45.987Z,79.21
2022-08-31T08:00:20.922Z,79.66
2022-08-31T08:02:53.339Z,81.36
2022-08-31T08:05:27.227Z,80.52
2022-08-31T08:07:59.172Z,80.84
2022-08-31T08:10:27.016Z,81.31
2022-08-31T08:13:00.758Z,79.28
2022-08-31T08:15:36.199Z,78.89
2022-08-31T08:18:04.938Z,78.50
2022-08-31T08:20:35.275Z,79.98
2022-08-31T08:23:09.018Z,76.74
2022-08-31T08:25:38.719Z,76.09
2022-08-31T08:28:23.122Z,76.76
2022-08-31T08:31:01.489Z,75.45
2022-08-31T08:33:30.251Z,75.11
2022-08-31T08:35:59.560Z,73.88
2022-08-31T08:38:30.989Z,74.47
2022-08-31T08:41:00.667Z,73.79
2022-08-31T08:43:33.579Z,70.96
2022-08-31T08:46:20.105Z,70.85
2022-08-31T08:48:54.645Z,70.03
2022-08-31T08:51:26.753Z,66.70
2022-08-31T08:54:02.830Z,68.68
2022-08-31T08:56:33.923Z,68.08
2022-08-31T08:59:07.357Z,66.67
2022-08-31T09:01:40.397Z,66.31
2022-08-31T09:04:17.213Z,68.15
2022-08-31T09:06:54.715Z,67.30
2022-08-31T09:09:37.607Z,66.94
2022-08-31T09:12:24.079Z,67.15
2022-08-31T09:15:36.240Z,65.60
2022-08-31T09:18:14.702Z,64.37
2022-08-31T09:20:43.508Z,63.44
2022-08-31T09:23:14.387Z,63.95
2022-08-31T09:25:49.799Z,63.42
2022-08-31T09:28:18.878Z,64.56
2022-08-31T09:30:52.410Z,63.63
2022-08-31T09:33:24.462Z,63.61
2022-08-31T09:35:56.677Z,65.10
2022-08-31T09:38:30.079Z,65.00
2022-08-31T09:40:58.725Z,64.57
2022-08-31T09:43:38.628Z,65.25
2022-08-31T09:46:11.772Z,64.44
2022-08-31T09:48:51.395Z,62.13
2022-08-31T09:51:28.293Z,61.71
2022-08-31T09:54:17.994Z,62.39
2022-08-31T09:56:55.257Z,60.45
2022-08-31T09:59:37.286Z,59.75
2022-08-31T10:02:09.449Z,59.13
2022-08-31T10:04:52.201Z,58.48
2022-08-31T10:07:37.755Z,58.05
2022-08-31T10:10:18.795Z,58.24
2022-08-31T10:13:03.720Z,59.37
2022-08-31T10:15:35.380Z,58.53
2022-08-31T10:18:11.984Z,57.45
2022-08-31T10:20:48.376Z,57.86
2022-08-31T10:23:22.056Z,58.27
2022-08-31T10:25:57.505Z,58.04
2022-08-31T10:28:36.670Z,56.66
2022-08-31T10:31:13.488Z,55.58
2022-08-31T10:34:16.259Z,55.75
2022-08-31T10:36:48.579Z,56.51
2022-08-31T10:39:25.794Z,54.48
2022-08-31T10:41:53.661Z,55.87
2022-08-31T10:44:32.597Z,56.56
2022-08-31T10:47:05.702Z,56.29
2022-08-31T10:49:35.421Z,56.32
2022-08-31T10:52:11.877Z,57.16
2022-08-31T10:54:48.847Z,57.59
2022-08-31T10:57:31.502Z,55.90
2022-08-31T11:00:04.077Z,57.53
2022-08-31T11:02:55.471Z,56.99
2022-08-31T11:05:35.268Z,58.11
2022-08-31T11:08:18.579Z,57.99
2022-08-31T11:10:51.948Z,57.84
2022-08-31T11:13:39.456Z,56.77
2022-08-31T11:16:32.774Z,55.05
2022-08-31T11:19:27.285Z,54.03
2022-08-31T11:22:16.635Z,54.15
2022-08-31T11:25:10.028Z,53.17
2022-08-31T11:27:44.277Z,54.33
2022-08-31T11:30:24.359Z,53.15
2022-08-31T11:32:55.384Z,54.58
2022-08-31T11:36:06.093Z,54.81
2022-08-31T11:38:48.759Z,53.43
2022-08-31T11:41:39.501Z,53.57
2022-08-31T11:44:09.032Z,53.65
2022-08-31T11:47:14.570Z,53.48
2022-08-31T11:49:48.591Z,53.30
2022-08-31T11:52:48.095Z,53.98
2022-08-31T11:55:23.475Z,54.56
2022-08-31T11:58:20.751Z,55.26
2022-08-31T12:00:54.117Z,53.41
2022-08-31T12:04:03.867Z,53.73
2022-08-31T12:07:08.440Z,50.55
2022-08-31T12:09:58.225Z,51.25
2022-08-31T12:12:38.719Z,49.55
2022-08-31T12:15:20.325Z,51.25
2022-08-31T12:18:05.517Z,50.00
2022-08-31T12:21:08.369Z,49.90
2022-08-31T12:23:39.660Z,50.67
2022-08-31T12:26:44.945Z,49.58
2022-08-31T12:29:26.688Z,50.02
2022-08-31T12:32:17.861Z,50.38
2022-08-31T12:34:50.354Z,49.71
2022-08-31T12:37:24.982Z,48.79
2022-08-31T12:40:12.127Z,46.99
2022-08-31T12:42:44.982Z,46.16
2022-08-31T12:45:16.780Z,47.24
2022-08-31T12:47:56.843Z,46.65
2022-08-31T12:50:34.474Z,47.15
2022-08-31T12:53:32.156Z,47.11
2022-08-31T12:56:06.886Z,48.32
2022-08-31T12:58:55.606Z,47.51
2022-08-31T13:01:27.551Z,47.73
2022-08-31T13:04:01.899Z,46.52
2022-08-31T13:06:32.567Z,45.20
2022-08-31T13:09:02.186Z,45.66
2022-08-31T13:11:40.686Z,44.03
2022-08-31T13:14:15.764Z,43.72
2022-08-31T13:16:46.030Z,43.93
2022-08-31T13:19:25.840Z,44.06
2022-08-31T13:21:56.970Z,44.27
2022-08-31T13:24:29.017Z,45.97
2022-08-31T13:27:12.402Z,46.03
2022-08-31T13:29:45.495Z,43.27
2022-08-31T13:32:31.697Z,43.70
2022-08-31T13:35:04.325Z,44.06
2022-08-31T13:37:38.608Z,42.21
2022-08-31T13:40:11.002Z,42.92
2022-08-31T13:42:42.882Z,42.76
2022-08-31T13:45:26.273Z,45.53
2022-08-31T13:47:58.291Z,42.00
2022-08-31T13:50:34.137Z,41.53
2022-08-31T13:53:25.803Z,40.56
2022-08-31T13:55:53.247Z,41.42
2022-08-31T13:58:28.785Z,41.18
2022-08-31T14:01:22.188Z,39.99
2022-08-31T14:03:56.330Z,39.38
2022-08-31T14:06:27.603Z,38.79
2022-08-31T14:09:03.253Z,39.95
2022-08-31T14:11:32.031Z,38.80
2022-08-31T14:14:06.119Z,39.57
2022-08-31T14:16:37.077Z,40.21
2022-08-31T14:19:05.765Z,40.91
2022-08-31T14:21:40.178Z,37.85
2022-08-31T14:24:10.527Z,39.94
2022-08-31T14:26:41.536Z,38.66
2022-08-31T14:29:12.407Z,39.82
2022-08-31T14:31:45.569Z,41.48
2022-08-31T14:34:24.255Z,39.15
2022-08-31T14:36:57.608Z,39.24
2022-08-31T14:39:30.795Z,41.70
2022-08-31T14:42:00.971Z,41.02
2022-08-31T14:44:32.424Z,41.25
2022-08-31T14:47:00.526Z,40.31
2022-08-31T14:49:31.561Z,39.20
2022-08-31T14:52:06.499Z,39.24
2022-08-31T14:54:37.592Z,38.60
2022-08-31T14:57:11.540Z,39.54
2022-08-31T14:59:43.113Z,40.00
2022-08-31T15:02:13.659Z,39.93
2022-08-31T15:04:45.836Z,41.11
2022-08-31T15:07:16.696Z,40.50
2022-08-31T15:09:46.717Z,40.78
2022-08-31T15:12:15.374Z,40.39
2022-08-31T15:14:44.824Z,40.46
2022-08-31T15:17:19.206Z,39.73
2022-08-31T15:19:50.503Z,39.14
2022-08-31T15:22:19.997Z,39.90
2022-08-31T15:24:48.071Z,40.33
2022-08-31T15:27:16.499Z,40.22
2022-08-31T15:29:46.729Z,40.53
2022-08-31T15:32:16.685Z,41.28
2022-08-31T15:34:57.807Z,42.45
2022-08-31T15:37:31.699Z,41.11
2022-08-31T15:40:01.643Z,42.03
2022-08-31T15:42:31.331Z,44.20
2022-08-31T15:45:00.201Z,43.13
2022-08-31T15:47:47.998Z,42.83
2022-08-31T15:50:19.196Z,42.56
2022-08-31T15:52:51.674Z,43.44
2022-08-31T15:55:26.373Z,44.07
2022-08-31T15:57:55.956Z,43.11
2022-08-31T16:00:25.874Z,43.71
2022-08-31T16:02:57.578Z,43.63
2022-08-31T16:05:28.306Z,43.27
2022-08-31T16:07:58.168Z,43.67
2022-08-31T16:10:28.183Z,43.23
2022-08-31T16:12:56.225Z,42.62
2022-08-31T16:15:25.120Z,43.06
2022-08-31T16:17:57.642Z,43.59
2022-08-31T16:20:27.404Z,44.35
2022-08-31T16:22:55.495Z,44.85
2022-08-31T16:25:25.286Z,44.96
2022-08-31T16:27:59.817Z,45.58
2022-08-31T16:30:28.955Z,45.72
2022-08-31T16:32:56.826Z,45.81
2022-08-31T16:35:24.754Z,45.37
2022-08-31T16:37:52.634Z,46.07
2022-08-31T16:40:22.623Z,46.89
2022-08-31T16:42:51.884Z,45.54
2022-08-31T16:45:19.966Z,46.09
2022-08-31T16:47:47.738Z,46.10
2022-08-31T16:50:16.003Z,47.23
2022-08-31T16:52:44.621Z,46.50
2022-08-31T16:55:17.072Z,46.06
2022-08-31T16:57:45.764Z,46.17
2022-08-31T17:00:15.737Z,47.41
2022-08-31T17:02:43.627Z,47.18
2022-08-31T17:05:12.890Z,46.93
2022-08-31T17:07:42.669Z,47.46
2022-08-31T17:10:11.043Z,47.36
2022-08-31T17:12:42.002Z,48.15
2022-08-31T17:15:13.829Z,48.19
2022-08-31T17:17:46.226Z,47.49
2022-08-31T17:20:16.397Z,48.01
2022-08-31T17:22:45.982Z,47.99
2022-08-31T17:25:14.360Z,48.35
2022-08-31T17:27:42.136Z,48.58
2022-08-31T17:30:13.563Z,48.79
2022-08-31T17:32:45.213Z,48.44
2022-08-31T17:35:17.395Z,48.83
2022-08-31T17:37:45.836Z,49.84
2022-08-31T17:40:14.220Z,49.28
2022-08-31T17:42:42.279Z,49.30
2022-08-31T17:45:10.825Z,50.26
2022-08-31T17:47:38.585Z,49.19
2022-08-31T17:50:08.622Z,50.46
2022-08-31T17:52:36.417Z,50.73
2022-08-31T17:55:04.778Z,50.42
2022-08-31T17:57:32.503Z,50.55
2022-08-31T18:00:00.260Z,50.12
2022-08-31T18:02:33.033Z,50.05
2022-08-31T18:05:01.314Z,50.72
2022-08-31T18:07:30.433Z,50.26
2022-08-31T18:09:58.960Z,50.30
2022-08-31T18:12:27.363Z,50.82
2022-08-31T18:14:57.974Z,50.66
2022-08-31T18:17:26.465Z,51.33
2022-08-31T18:19:54.874Z,51.14
2022-08-31T18:22:22.597Z,52.12
2022-08-31T18:24:51.620Z,52.26
2022-08-31T18:27:20.165Z,52.43
2022-08-31T18:29:47.944Z,52.41
2022-08-31T18:32:16.109Z,51.84
2022-08-31T18:34:46.169Z,52.13
2022-08-31T18:37:16.165Z,53.94
2022-08-31T18:40:08.518Z,53.55
2022-08-31T18:43:00.990Z,54.49
2022-08-31T18:45:30.699Z,54.41
2022-08-31T18:48:24.857Z,68.36
2022-08-31T18:50:48.773Z,65.53
2022-08-31T18:53:27.784Z,62.54
2022-08-31T18:55:58.042Z,62.45
2022-08-31T18:58:27.256Z,55.88
2022-08-31T19:00:57.404Z,57.85
2022-08-31T19:03:27.157Z,55.09
2022-08-31T19:05:55.110Z,56.94
2022-08-31T19:08:23.233Z,57.14
2022-08-31T19:10:51.287Z,58.92
2022-08-31T19:13:19.150Z,56.27
2022-08-31T19:15:48.485Z,58.13
2022-08-31T19:18:16.515Z,57.37
2022-08-31T19:20:44.356Z,56.19
2022-08-31T19:23:15.450Z,59.64
2022-08-31T19:25:48.322Z,58.50
2022-08-31T19:28:16.265Z,55.34
2022-08-31T19:30:47.639Z,55.95
2022-08-31T19:33:16.965Z,55.58
2022-08-31T19:35:45.387Z,56.91
2022-08-31T19:38:14.382Z,55.76
2022-08-31T19:40:42.368Z,56.49
2022-08-31T19:46:09.552Z,55.92
2022-08-31T19:48:46.170Z,57.11
2022-08-31T19:51:15.507Z,53.95
2022-08-31T19:53:44.865Z,57.10
2022-08-31T19:56:17.261Z,54.74
2022-08-31T19:58:46.942Z,55.67
2022-08-31T20:01:14.909Z,56.28
2022-08-31T20:03:45.264Z,54.88
2022-08-31T20:06:16.358Z,56.97
2022-08-31T20:08:44.842Z,54.21
2022-08-31T20:11:19.334Z,55.90
2022-08-31T20:13:49.615Z,56.65
2022-08-31T20:16:18.606Z,55.81
2022-08-31T20:18:48.771Z,56.57
2022-08-31T20:21:19.264Z,56.39
2022-08-31T20:23:48.933Z,55.62
2022-08-31T20:26:21.197Z,54.53
2022-08-31T20:28:52.613Z,54.48
2022-08-31T20:31:21.190Z,54.50
2022-08-31T20:33:50.532Z,55.26
2022-08-31T20:36:22.701Z,55.63
2022-08-31T20:38:57.112Z,54.31
2022-08-31T20:41:26.265Z,53.86
2022-08-31T20:43:55.580Z,54.72
2022-08-31T20:46:40.639Z,54.30
2022-08-31T20:49:26.222Z,55.24
2022-08-31T20:51:55.888Z,55.97
2022-08-31T20:54:24.717Z,57.15
2022-08-31T20:56:53.711Z,57.53
2022-08-31T20:59:23.613Z,57.46
2022-08-31T21:01:55.219Z,59.28
2022-08-31T21:04:24.652Z,56.38
2022-08-31T21:06:53.288Z,56.64
2022-08-31T21:09:21.512Z,57.02
2022-08-31T21:11:50.386Z,56.96
2022-08-31T21:14:20.668Z,57.88
2022-08-31T21:16:49.144Z,57.40
2022-08-31T21:19:22.203Z,58.88
2022-08-31T21:21:53.523Z,59.97
2022-08-31T21:24:22.244Z,59.45
2022-08-31T21:26:59.326Z,58.92
2022-08-31T21:29:29.205Z,58.22
2022-08-31T21:32:03.424Z,58.02
2022-08-31T21:34:32.772Z,57.84
2022-08-31T21:37:02.000Z,57.57
2022-08-31T21:39:32.487Z,59.66
2022-08-31T21:42:01.166Z,57.86
2022-08-31T21:44:29.056Z,58.52
2022-08-31T21:46:57.047Z,58.83
2022-08-31T21:49:25.327Z,59.31
2022-08-31T21:51:54.744Z,58.13
2022-08-31T21:54:27.388Z,59.93
2022-08-31T21:56:57.463Z,58.43
2022-08-31T21:59:28.277Z,59.98
2022-08-31T22:01:59.317Z,60.08
2022-08-31T22:04:28.048Z,60.11
2022-08-31T22:06:56.433Z,58.02
2022-08-31T22:09:26.904Z,57.81
2022-08-31T22:11:58.251Z,58.60
2022-08-31T22:14:29.697Z,58.22
2022-08-31T22:16:59.239Z,58.51
2022-08-31T22:19:28.582Z,58.06
2022-08-31T22:21:59.045Z,56.99
2022-08-31T22:24:30.306Z,57.28
2022-08-31T22:27:00.604Z,57.90
2022-08-31T22:29:31.332Z,57.96
2022-08-31T22:32:01.625Z,58.23
2022-08-31T22:34:29.836Z,58.40
2022-08-31T22:36:58.626Z,57.86
2022-08-31T22:39:30.138Z,58.71
2022-08-31T22:41:59.206Z,58.08
2022-08-31T22:44:29.788Z,58.15
2022-08-31T22:46:57.891Z,58.63
2022-08-31T22:49:27.171Z,58.35
2022-08-31T22:51:55.217Z,58.85
2022-08-31T22:54:23.855Z,58.56
2022-08-31T22:56:53.241Z,58.70
2022-08-31T22:59:27.062Z,58.55
2022-08-31T23:01:58.329Z,58.47
2022-08-31T23:04:29.907Z,59.38
2022-08-31T23:06:59.190Z,59.42
2022-08-31T23:09:30.993Z,59.46
2022-08-31T23:12:02.223Z,59.83
2022-08-31T23:14:32.084Z,60.36
2022-08-31T23:17:01.682Z,59.77
2022-08-31T23:19:33.022Z,60.38
2022-08-31T23:22:02.091Z,60.05
2022-08-31T23:24:32.890Z,60.60
2022-08-31T23:27:04.990Z,60.83
2022-08-31T23:29:34.578Z,60.78
2022-08-31T23:32:03.008Z,60.73
2022-08-31T23:34:31.377Z,61.01
2022-08-31T23:36:59.204Z,60.63
2022-08-31T23:39:27.702Z,60.68
2022-08-31T23:41:55.469Z,60.66
2022-08-31T23:44:24.836Z,60.63
2022-08-31T23:46:52.945Z,60.62
2022-08-31T23:49:21.663Z,61.78
2022-08-31T23:51:50.396Z,62.61
2022-08-31T23:54:19.068Z,61.34
2022-08-31T23:56:48.723Z,61.54
2022-08-31T23:59:19.957Z,62.34
